createdAt,value
2022-10-23T00:02:12.829Z,101059.22
2022-10-23T00:04:41.932Z,101062.84
2022-10-23T00:07:09.660Z,101068.19
2022-10-23T00:09:37.327Z,100983.31
2022-10-23T00:12:05.336Z,101070.09
2022-10-23T00:14:33.305Z,101075.38
2022-10-23T00:17:01.002Z,101074.44
2022-10-23T00:19:28.831Z,101077.00
2022-10-23T00:21:57.872Z,101071.78
2022-10-23T00:24:25.572Z,101069.03
2022-10-23T00:26:53.288Z,101083.88
2022-10-23T00:29:20.976Z,101075.28
2022-10-23T00:31:48.767Z,101086.59
2022-10-23T00:34:16.504Z,101086.72
2022-10-23T00:36:44.176Z,101086.09
2022-10-23T00:39:13.240Z,101091.41
2022-10-23T00:41:41.044Z,101088.09
2022-10-23T00:44:10.946Z,101084.81
2022-10-23T00:46:40.413Z,101074.69
2022-10-23T00:49:08.976Z,101090.13
2022-10-23T00:51:40.313Z,101095.44
2022-10-23T00:54:25.056Z,101088.47
2022-10-23T00:56:57.287Z,101079.97
2022-10-23T00:59:25.585Z,101080.91
2022-10-23T01:01:53.361Z,101082.78
2022-10-23T01:04:21.886Z,101094.97
2022-10-23T01:06:58.782Z,101081.09
2022-10-23T01:09:33.219Z,101093.25
2022-10-23T01:12:09.704Z,101089.75
2022-10-23T01:14:44.893Z,101098.47
2022-10-23T01:17:20.852Z,101088.06
2022-10-23T01:20:02.383Z,101088.19
2022-10-23T01:22:53.837Z,101083.03
2022-10-23T01:25:30.590Z,101084.81
2022-10-23T01:28:04.231Z,101098.72
2022-10-23T01:30:34.616Z,101034.16
2022-10-23T01:33:07.806Z,101086.59
2022-10-23T01:35:38.907Z,101088.34
2022-10-23T01:38:13.869Z,101097.91
2022-10-23T01:40:49.359Z,101086.63
2022-10-23T01:43:22.923Z,101095.41
2022-10-23T01:45:54.248Z,101089.38
2022-10-23T01:48:27.037Z,101088.59
2022-10-23T01:50:58.980Z,101094.75
2022-10-23T01:53:30.673Z,101081.84
2022-10-23T01:56:00.658Z,101084.44
2022-10-23T01:58:32.581Z,101091.50
2022-10-23T02:01:04.483Z,101089.03
2022-10-23T02:03:35.471Z,101086.47
2022-10-23T02:06:03.226Z,101085.69
2022-10-23T02:08:31.843Z,101079.72
2022-10-23T02:11:04.376Z,101074.47
2022-10-23T02:13:38.909Z,101079.66
2022-10-23T02:16:17.052Z,101084.84
2022-10-23T02:18:51.194Z,101082.06
2022-10-23T02:21:23.122Z,101079.34
2022-10-23T02:23:56.258Z,101079.22
2022-10-23T02:26:30.401Z,101079.09
2022-10-23T02:31:38.875Z,101068.41
2022-10-23T02:34:06.782Z,101083.13
2022-10-23T02:36:34.523Z,101072.59
2022-10-23T02:39:02.276Z,101068.16
2022-10-23T02:41:39.096Z,101074.97
2022-10-23T02:44:22.524Z,101073.19
2022-10-23T02:46:54.608Z,101046.50
2022-10-23T02:49:28.696Z,101067.19
2022-10-23T02:52:05.866Z,101073.25
2022-10-23T02:54:47.125Z,101052.50
2022-10-23T02:57:23.700Z,101082.56
2022-10-23T03:00:01.660Z,101077.94
2022-10-23T03:02:36.546Z,101052.94
2022-10-23T03:05:07.207Z,101072.41
2022-10-23T03:07:35.509Z,101073.97
2022-10-23T03:10:03.321Z,101075.72
2022-10-23T03:12:31.087Z,101067.84
2022-10-23T03:15:00.146Z,101078.97
2022-10-23T03:17:28.378Z,101023.91
2022-10-23T03:19:56.229Z,101076.16
2022-10-23T03:22:24.474Z,101073.50
2022-10-23T03:24:52.198Z,101076.94
2022-10-23T03:27:19.949Z,101068.25
2022-10-23T03:29:47.629Z,101076.06
2022-10-23T03:32:16.721Z,101078.72
2022-10-23T03:34:44.556Z,101078.72
2022-10-23T03:37:12.237Z,101074.31
2022-10-23T03:39:39.936Z,101084.63
2022-10-23T03:42:07.637Z,101090.72
2022-10-23T03:44:35.348Z,101090.69
2022-10-23T03:47:03.090Z,101089.88
2022-10-23T03:49:32.555Z,101092.38
2022-10-23T03:52:00.211Z,101090.72
2022-10-23T03:54:29.806Z,101091.59
2022-10-23T03:56:58.265Z,101043.53
2022-10-23T03:59:26.037Z,101090.66
2022-10-23T04:01:53.864Z,101097.47
2022-10-23T04:04:21.628Z,101095.00
2022-10-23T04:06:50.766Z,101068.28
2022-10-23T04:09:18.770Z,101093.19
2022-10-23T04:11:46.550Z,101097.75
2022-10-23T04:14:14.941Z,101094.25
2022-10-23T04:16:42.687Z,101051.44
2022-10-23T04:19:10.633Z,101086.81
2022-10-23T04:21:38.513Z,101080.94
2022-10-23T04:24:08.238Z,101079.34
2022-10-23T04:26:36.028Z,101093.19
2022-10-23T04:29:03.774Z,101092.59
2022-10-23T04:31:31.486Z,101085.63
2022-10-23T04:33:59.225Z,101084.81
2022-10-23T04:36:26.990Z,101088.34
2022-10-23T04:38:54.685Z,101099.69
2022-10-23T04:41:23.897Z,101097.16
2022-10-23T04:43:51.582Z,101098.06
2022-10-23T04:46:19.279Z,101104.97
2022-10-23T04:48:46.970Z,101096.28
2022-10-23T04:51:14.674Z,101109.41
2022-10-23T04:53:42.343Z,101103.31
2022-10-23T04:56:14.889Z,101112.94
2022-10-23T04:58:44.034Z,101111.31
2022-10-23T05:01:12.214Z,101108.56
2022-10-23T05:03:40.454Z,101106.69
2022-10-23T05:06:08.341Z,101103.22
2022-10-23T05:08:36.552Z,101106.66
2022-10-23T05:11:04.765Z,101105.69
2022-10-23T05:13:32.448Z,101109.09
2022-10-23T05:16:01.551Z,101105.53
2022-10-23T05:18:35.729Z,101108.19
2022-10-23T05:21:07.565Z,101105.44
2022-10-23T05:23:38.437Z,101082.94
2022-10-23T05:26:06.333Z,101089.75
2022-10-23T05:28:34.002Z,101087.81
2022-10-23T05:31:06.027Z,101091.34
2022-10-23T05:33:35.685Z,101084.44
2022-10-23T05:36:04.057Z,101093.19
2022-10-23T05:38:36.000Z,101093.28
2022-10-23T05:41:03.806Z,101091.59
2022-10-23T05:43:31.519Z,101086.25
2022-10-23T05:45:59.860Z,101076.72
2022-10-23T05:48:35.993Z,101083.63
2022-10-23T05:51:05.313Z,101009.66
2022-10-23T05:53:33.308Z,101071.38
2022-10-23T05:56:05.701Z,101053.50
2022-10-23T05:58:34.452Z,101085.44
2022-10-23T06:01:06.311Z,101077.56
2022-10-23T06:03:35.439Z,101051.63
2022-10-23T06:06:03.202Z,101068.75
2022-10-23T06:08:31.636Z,101072.38
2022-10-23T06:10:59.409Z,101062.16
2022-10-23T06:13:27.162Z,101062.31
2022-10-23T06:15:54.834Z,101072.56
2022-10-23T06:18:22.580Z,101065.69
2022-10-23T06:20:51.614Z,101077.09
2022-10-23T06:23:19.311Z,101061.78
2022-10-23T06:25:53.560Z,101022.13
2022-10-23T06:28:21.238Z,101036.88
2022-10-23T06:30:48.984Z,101043.59
2022-10-23T06:33:16.672Z,101058.22
2022-10-23T06:35:44.485Z,100950.13
2022-10-23T06:38:13.728Z,101057.41
2022-10-23T06:40:41.466Z,101034.50
2022-10-23T06:43:09.521Z,101055.75
2022-10-23T06:45:37.238Z,101060.31
2022-10-23T06:48:05.377Z,101050.72
2022-10-23T06:50:33.085Z,101052.72
2022-10-23T06:53:00.845Z,101060.56
2022-10-23T06:55:31.122Z,101063.34
2022-10-23T06:57:58.855Z,101052.94
2022-10-23T07:00:26.940Z,101052.88
2022-10-23T07:02:54.764Z,101068.06
2022-10-23T07:05:22.531Z,101055.94
2022-10-23T07:07:50.222Z,101074.13
2022-10-23T07:10:18.173Z,101019.34
2022-10-23T07:12:47.763Z,101016.47
2022-10-23T07:15:15.648Z,101078.84
2022-10-23T07:17:43.369Z,101023.78
2022-10-23T07:20:11.056Z,101081.69
2022-10-23T07:22:38.842Z,101016.72
2022-10-23T07:25:07.613Z,101076.69
2022-10-23T07:27:37.607Z,101063.06
2022-10-23T07:30:07.838Z,101050.44
2022-10-23T07:32:35.490Z,101032.41
2022-10-23T07:35:03.220Z,101071.66
2022-10-23T07:37:31.367Z,101064.13
2022-10-23T07:39:59.032Z,101076.53
2022-10-23T07:42:26.804Z,101080.03
2022-10-23T07:44:54.475Z,101073.22
2022-10-23T07:47:23.544Z,101078.97
2022-10-23T07:49:51.223Z,101073.16
2022-10-23T07:52:18.965Z,101078.72
2022-10-23T07:54:46.647Z,101074.56
2022-10-23T07:57:14.328Z,101070.28
2022-10-23T07:59:42.000Z,101078.38
2022-10-23T08:02:12.608Z,101080.69
2022-10-23T08:04:41.942Z,101079.75
2022-10-23T08:07:09.609Z,101068.25
2022-10-23T08:09:38.101Z,101065.41
2022-10-23T08:12:06.203Z,101076.72
2022-10-23T08:14:33.888Z,101058.06
2022-10-23T08:19:30.192Z,101082.72
2022-10-23T08:21:59.204Z,101080.38
2022-10-23T08:24:26.885Z,101063.25
2022-10-23T08:26:54.571Z,101073.88
2022-10-23T08:29:22.439Z,101026.63
2022-10-23T08:31:50.147Z,100993.03
2022-10-23T08:34:18.870Z,101064.31
2022-10-23T08:36:46.609Z,101065.31
2022-10-23T08:39:15.683Z,101032.16
2022-10-23T08:41:45.038Z,101054.28
2022-10-23T08:44:22.402Z,101064.09
2022-10-23T08:46:58.809Z,101061.63
2022-10-23T08:49:37.395Z,101058.56
2022-10-23T08:52:16.375Z,100968.22
2022-10-23T08:55:01.187Z,101053.69
2022-10-23T08:57:38.749Z,101048.66
2022-10-23T09:00:13.504Z,101039.91
2022-10-23T09:02:44.682Z,101047.81
2022-10-23T09:05:16.796Z,101026.41
2022-10-23T09:08:00.397Z,101046.47
2022-10-23T09:10:51.461Z,101048.94
2022-10-23T09:13:51.366Z,101056.63
2022-10-23T09:16:32.021Z,101056.31
2022-10-23T09:19:00.188Z,101060.66
2022-10-23T09:21:29.834Z,101041.06
2022-10-23T09:23:57.700Z,101048.31
2022-10-23T09:29:36.016Z,101012.66
2022-10-23T09:32:06.642Z,100992.13
2022-10-23T09:34:35.585Z,101008.53
2022-10-23T09:37:06.140Z,101037.19
2022-10-23T09:39:36.114Z,101030.78
2022-10-23T09:42:22.890Z,101024.13
2022-10-23T09:44:52.694Z,101028.31
2022-10-23T09:47:22.703Z,101032.31
2022-10-23T09:49:52.171Z,101028.97
2022-10-23T09:52:26.996Z,101009.44
2022-10-23T09:54:56.926Z,101021.72
2022-10-23T09:57:31.199Z,101031.50
2022-10-23T10:00:03.259Z,101026.22
2022-10-23T10:02:33.769Z,101025.56
2022-10-23T10:05:01.544Z,101025.94
2022-10-23T10:07:33.478Z,100988.25
2022-10-23T10:10:03.763Z,101018.09
2022-10-23T10:12:50.740Z,101019.44
2022-10-23T10:15:23.615Z,101017.84
2022-10-23T10:18:02.529Z,100997.47
2022-10-23T10:21:00.760Z,101026.13
2022-10-23T10:23:36.394Z,100996.38
2022-10-23T10:26:15.189Z,100976.81
2022-10-23T10:29:00.157Z,101014.94
2022-10-23T10:31:36.926Z,101015.31
2022-10-23T10:34:14.205Z,101015.56
2022-10-23T10:36:51.883Z,101007.47
2022-10-23T10:39:28.745Z,100971.03
2022-10-23T10:42:14.033Z,101007.44
2022-10-23T10:45:14.539Z,100997.28
2022-10-23T10:47:51.737Z,100999.63
2022-10-23T10:50:38.890Z,100960.81
2022-10-23T10:53:18.744Z,100964.63
2022-10-23T10:55:51.957Z,100988.53
2022-10-23T10:58:26.077Z,100986.72
2022-10-23T11:00:59.365Z,100981.97
2022-10-23T11:03:37.639Z,100988.97
2022-10-23T11:06:14.276Z,100963.47
2022-10-23T11:09:19.315Z,100849.50
2022-10-23T11:11:47.325Z,100974.38
2022-10-23T11:14:17.690Z,100957.28
2022-10-23T11:16:50.839Z,100940.06
2022-10-23T11:19:24.427Z,100911.56
2022-10-23T11:21:57.967Z,100958.00
2022-10-23T11:24:58.255Z,100954.91
2022-10-23T11:27:37.868Z,100946.22
2022-10-23T11:30:18.600Z,100939.41
2022-10-23T11:33:03.630Z,100941.44
2022-10-23T11:36:00.416Z,100932.22
2022-10-23T11:38:31.075Z,100919.72
2022-10-23T11:41:02.681Z,100846.34
2022-10-23T11:43:33.438Z,100917.84
2022-10-23T11:46:12.894Z,100902.59
2022-10-23T11:48:43.583Z,100917.22
2022-10-23T11:51:32.058Z,100881.72
2022-10-23T11:54:26.090Z,100804.94
2022-10-23T11:56:57.828Z,100806.91
2022-10-23T11:59:30.428Z,100906.63
2022-10-23T12:02:00.666Z,100856.69
2022-10-23T12:04:44.080Z,100842.84
2022-10-23T12:07:24.930Z,100857.53
2022-10-23T12:09:58.378Z,100854.47
2022-10-23T12:12:34.005Z,100850.88
2022-10-23T12:15:20.942Z,100881.25
2022-10-23T12:17:49.926Z,100882.78
2022-10-23T12:20:27.623Z,100846.28
2022-10-23T12:23:13.804Z,100868.28
2022-10-23T12:25:56.382Z,100878.50
2022-10-23T12:28:35.303Z,100865.19
2022-10-23T12:31:17.243Z,100862.59
2022-10-23T12:33:51.461Z,100819.41
2022-10-23T12:36:36.065Z,100854.16
2022-10-23T12:39:03.819Z,100852.41
2022-10-23T12:41:34.814Z,100822.69
2022-10-23T12:44:05.116Z,100827.19
2022-10-23T12:46:37.996Z,100810.19
2022-10-23T12:49:15.237Z,100806.53
2022-10-23T12:51:44.870Z,100806.44
2022-10-23T12:54:18.677Z,100800.72
2022-10-23T12:56:46.632Z,100808.50
2022-10-23T12:59:20.741Z,100815.41
2022-10-23T13:01:52.608Z,100742.25
2022-10-23T13:04:27.814Z,100789.84
2022-10-23T13:06:58.915Z,100809.28
2022-10-23T13:09:30.818Z,100801.56
2022-10-23T13:11:59.943Z,100807.03
2022-10-23T13:14:32.523Z,100804.63
2022-10-23T13:17:01.653Z,100796.03
2022-10-23T13:19:29.420Z,100796.66
2022-10-23T13:21:59.738Z,100798.38
2022-10-23T13:24:29.587Z,100781.22
2022-10-23T13:26:58.311Z,100764.50
2022-10-23T13:29:30.133Z,100786.81
2022-10-23T13:31:58.361Z,100783.47
2022-10-23T13:34:28.411Z,100778.97
2022-10-23T13:37:04.305Z,100773.69
2022-10-23T13:39:33.724Z,100759.41
2022-10-23T13:42:11.740Z,100751.81
2022-10-23T13:44:39.975Z,100730.88
2022-10-23T13:47:11.493Z,100705.06
2022-10-23T13:49:39.232Z,100746.63
2022-10-23T13:52:12.166Z,100739.66
2022-10-23T13:54:39.874Z,100737.47
2022-10-23T13:57:13.969Z,100759.78
2022-10-23T13:59:41.840Z,100752.19
2022-10-23T14:02:18.947Z,100763.06
2022-10-23T14:04:47.258Z,100755.88
2022-10-23T14:07:16.411Z,100755.47
2022-10-23T14:09:44.406Z,100709.38
2022-10-23T14:12:13.575Z,100736.75
2022-10-23T14:14:41.451Z,100754.84
2022-10-23T14:17:09.178Z,100747.91
2022-10-23T14:22:09.459Z,100753.75
2022-10-23T14:24:38.572Z,100750.28
2022-10-23T14:27:06.322Z,100741.31
2022-10-23T14:29:34.090Z,100735.41
2022-10-23T14:32:01.750Z,100747.06
2022-10-23T14:34:29.451Z,100749.13
2022-10-23T14:37:07.958Z,100737.31
2022-10-23T14:39:38.135Z,100743.41
2022-10-23T14:42:05.878Z,100728.25
2022-10-23T14:44:33.626Z,100733.50
2022-10-23T14:47:03.043Z,100731.56
2022-10-23T14:49:31.482Z,100724.84
2022-10-23T14:51:59.279Z,100697.72
2022-10-23T14:54:28.230Z,100629.75
2022-10-23T14:57:05.221Z,100673.03
2022-10-23T14:59:33.011Z,100707.53
2022-10-23T15:02:00.747Z,100659.59
2022-10-23T15:04:28.591Z,100696.41
2022-10-23T15:06:56.314Z,100682.34
2022-10-23T15:09:25.218Z,100661.97
2022-10-23T15:12:07.151Z,100601.56
2022-10-23T15:14:36.416Z,100671.84
2022-10-23T15:17:05.155Z,100441.75
2022-10-23T15:19:34.997Z,100621.09
2022-10-23T15:22:04.115Z,100478.91
2022-10-23T15:24:31.826Z,100348.22
2022-10-23T15:27:00.289Z,100655.97
2022-10-23T15:29:28.097Z,100632.38
2022-10-23T15:31:58.749Z,100649.75
2022-10-23T15:34:28.847Z,100620.13
2022-10-23T15:36:58.169Z,100617.84
2022-10-23T15:39:33.666Z,100634.03
2022-10-23T15:42:01.642Z,100662.94
2022-10-23T15:44:31.125Z,100663.19
2022-10-23T15:47:00.720Z,100663.63
2022-10-23T15:49:30.399Z,100658.84
2022-10-23T15:51:59.622Z,100621.63
2022-10-23T15:54:36.860Z,100461.63
2022-10-23T15:57:05.243Z,100614.28
2022-10-23T15:59:33.406Z,100641.72
2022-10-23T16:02:02.783Z,100627.97
2022-10-23T16:04:31.197Z,100580.81
2022-10-23T16:06:59.082Z,100637.78
2022-10-23T16:09:26.794Z,100654.63
2022-10-23T16:11:54.549Z,100623.75
2022-10-23T16:14:26.611Z,100581.03
2022-10-23T16:16:54.318Z,100648.16
2022-10-23T16:19:23.436Z,100656.03
2022-10-23T16:21:51.362Z,100656.81
2022-10-23T16:24:19.428Z,100644.72
2022-10-23T16:26:51.772Z,100642.91
2022-10-23T16:29:20.923Z,100569.38
2022-10-23T16:31:49.063Z,100630.19
2022-10-23T16:34:17.509Z,100621.63
2022-10-23T16:36:47.154Z,100649.75
2022-10-23T16:39:17.304Z,100639.38
2022-10-23T16:41:45.037Z,100644.38
2022-10-23T16:44:12.832Z,100642.44
2022-10-23T16:46:41.090Z,100621.69
2022-10-23T16:49:09.537Z,100611.56
2022-10-23T16:51:37.434Z,100593.44
2022-10-23T16:54:06.980Z,100561.69
2022-10-23T16:56:34.724Z,100564.63
2022-10-23T16:59:02.841Z,100586.59
2022-10-23T17:01:32.994Z,100601.78
2022-10-23T17:04:01.427Z,100588.88
2022-10-23T17:06:31.195Z,100582.31
2022-10-23T17:09:00.137Z,100584.13
2022-10-23T17:11:30.788Z,100596.09
2022-10-23T17:14:02.944Z,100566.63
2022-10-23T17:16:34.448Z,100571.13
2022-10-23T17:19:03.141Z,100510.44
2022-10-23T17:21:34.275Z,100557.06
2022-10-23T17:26:31.882Z,100549.03
2022-10-23T17:29:01.314Z,100553.69
2022-10-23T17:31:31.564Z,100550.38
2022-10-23T17:34:02.206Z,100530.00
2022-10-23T17:36:32.107Z,100549.75
2022-10-23T17:39:00.514Z,100545.38
2022-10-23T17:41:28.707Z,100551.97
2022-10-23T17:43:58.711Z,100459.19
2022-10-23T17:46:27.108Z,100490.97
2022-10-23T17:48:57.217Z,100537.88
2022-10-23T17:51:26.803Z,100548.03
2022-10-23T17:53:56.322Z,100517.44
2022-10-23T17:56:26.093Z,100538.19
2022-10-23T17:58:55.733Z,100515.63
2022-10-23T18:01:27.297Z,100532.09
2022-10-23T18:03:56.334Z,100527.94
2022-10-23T18:06:29.556Z,100527.47
2022-10-23T18:08:58.090Z,100509.28
2022-10-23T18:11:27.931Z,100441.88
2022-10-23T18:13:56.301Z,100514.88
2022-10-23T18:16:25.775Z,100424.34
2022-10-23T18:18:53.961Z,100504.00
2022-10-23T18:21:23.931Z,100497.34
2022-10-23T18:23:53.009Z,100493.91
2022-10-23T18:26:22.737Z,100483.81
2022-10-23T18:28:52.200Z,100483.31
2022-10-23T18:31:21.052Z,100465.16
2022-10-23T18:33:50.185Z,100469.91
2022-10-23T18:36:21.963Z,100438.34
2022-10-23T18:38:50.866Z,100433.00
2022-10-23T18:41:20.199Z,100460.88
2022-10-23T18:43:47.939Z,100452.78
2022-10-23T18:46:16.631Z,100447.91
2022-10-23T18:48:44.528Z,100446.22
2022-10-23T18:51:18.497Z,100464.16
2022-10-23T18:53:47.645Z,100457.84
2022-10-23T18:56:16.017Z,100433.41
2022-10-23T18:58:43.727Z,100444.91
2022-10-23T19:01:11.773Z,100447.06
2022-10-23T19:03:39.600Z,100442.84
2022-10-23T19:06:08.189Z,100455.84
2022-10-23T19:09:31.457Z,100368.19
2022-10-23T19:12:06.082Z,100232.53
2022-10-23T19:14:34.227Z,100239.72
2022-10-23T19:17:04.929Z,100455.28
2022-10-23T19:19:37.056Z,100406.75
2022-10-23T19:22:05.794Z,100401.22
2022-10-23T19:24:40.533Z,100373.41
2022-10-23T19:27:09.313Z,100401.22
2022-10-23T19:29:39.473Z,100284.91
2022-10-23T19:32:13.706Z,100447.94
2022-10-23T19:34:41.504Z,100222.31
2022-10-23T19:37:09.343Z,100405.91
2022-10-23T19:39:38.477Z,100389.78
2022-10-23T19:42:08.606Z,100362.47
2022-10-23T19:44:36.636Z,100364.16
2022-10-23T19:47:04.586Z,100388.94
2022-10-23T19:49:32.640Z,100393.19
2022-10-23T19:52:00.323Z,100379.75
2022-10-23T19:54:28.062Z,100390.25
2022-10-23T19:56:57.245Z,100369.66
2022-10-23T19:59:25.173Z,100369.66
2022-10-23T20:01:53.005Z,100313.75
2022-10-23T20:04:21.696Z,100282.66
2022-10-23T20:12:25.555Z,100225.88
2022-10-23T20:14:59.855Z,100256.31
2022-10-23T20:17:27.814Z,100354.47
2022-10-23T20:19:56.505Z,100337.94
2022-10-23T20:22:25.157Z,100328.94
2022-10-23T20:24:53.267Z,100334.69
2022-10-23T20:27:21.040Z,100310.72
2022-10-23T20:29:50.292Z,100344.91
2022-10-23T20:32:18.086Z,100339.88
2022-10-23T20:34:45.945Z,100342.28
2022-10-23T20:37:13.752Z,100332.38
2022-10-23T20:39:41.486Z,100310.66
2022-10-23T20:42:09.234Z,100322.00
2022-10-23T20:44:36.929Z,100319.19
2022-10-23T20:47:06.126Z,100298.91
2022-10-23T20:49:33.891Z,100314.22
2022-10-23T20:52:02.805Z,100289.47
2022-10-23T20:54:31.763Z,100332.25
2022-10-23T20:56:59.860Z,100279.63
2022-10-23T20:59:27.577Z,100295.53
2022-10-23T21:01:57.243Z,100270.06
2022-10-23T21:04:28.520Z,100310.88
2022-10-23T21:07:10.021Z,100290.59
2022-10-23T21:09:38.465Z,100260.41
2022-10-23T21:12:07.422Z,100293.13
2022-10-23T21:14:35.425Z,100303.31
2022-10-23T21:17:03.136Z,100290.41
2022-10-23T21:19:32.178Z,100293.81
2022-10-23T21:21:59.876Z,100284.47
2022-10-23T21:24:27.534Z,100289.78
2022-10-23T21:26:55.299Z,100274.69
2022-10-23T21:29:22.975Z,100265.88
2022-10-23T21:31:54.950Z,100260.78
2022-10-23T21:34:23.194Z,100254.09
2022-10-23T21:37:13.103Z,100262.75
2022-10-23T21:39:40.267Z,100263.81
2022-10-23T21:42:08.056Z,100249.28
2022-10-23T21:44:36.109Z,100232.63
2022-10-23T21:47:03.876Z,100262.28
2022-10-23T21:49:31.689Z,100258.00
2022-10-23T21:52:00.806Z,100253.75
2022-10-23T21:54:28.553Z,100255.53
2022-10-23T21:56:56.259Z,100252.19
2022-10-23T21:59:27.657Z,100253.88
2022-10-23T22:01:58.174Z,100201.88
2022-10-23T22:04:25.930Z,100246.00
2022-10-23T22:06:53.834Z,100231.63
2022-10-23T22:09:23.474Z,100237.22
2022-10-23T22:11:51.625Z,100235.72
2022-10-23T22:14:19.953Z,100229.56
2022-10-23T22:16:48.221Z,100241.88
2022-10-23T22:19:18.013Z,100211.94
2022-10-23T22:21:46.586Z,100245.88
2022-10-23T22:24:15.006Z,100249.28
2022-10-23T22:26:46.370Z,100241.28
2022-10-23T22:29:16.510Z,100237.09
2022-10-23T22:31:48.807Z,100235.25
2022-10-23T22:34:28.700Z,100231.97
2022-10-23T22:37:07.719Z,100213.81
2022-10-23T22:39:35.411Z,100228.56
2022-10-23T22:42:04.917Z,100216.09
2022-10-23T22:44:32.654Z,100224.13
2022-10-23T22:47:00.337Z,100210.41
2022-10-23T22:49:28.037Z,100223.13
2022-10-23T22:51:55.832Z,100185.59
2022-10-23T22:54:23.513Z,100200.78
2022-10-23T22:56:51.244Z,100207.59
2022-10-23T22:59:20.316Z,100197.97
2022-10-23T23:01:50.176Z,100185.34
2022-10-23T23:04:37.175Z,100188.31
2022-10-23T23:07:05.395Z,100193.56
2022-10-23T23:09:33.128Z,100179.81
2022-10-23T23:12:00.815Z,100200.50
2022-10-23T23:14:29.855Z,100192.84
2022-10-23T23:16:57.538Z,100159.50
2022-10-23T23:19:26.580Z,100188.44
2022-10-23T23:21:56.731Z,100207.72
2022-10-23T23:24:24.507Z,100178.41
2022-10-23T23:26:52.436Z,100189.25
2022-10-23T23:29:20.353Z,100181.38
2022-10-23T23:31:49.468Z,100168.25
2022-10-23T23:34:17.121Z,100170.59
2022-10-23T23:36:44.834Z,100174.00
2022-10-23T23:39:12.790Z,100182.66
2022-10-23T23:41:40.450Z,100186.19
2022-10-23T23:44:08.496Z,100169.03
2022-10-23T23:46:36.261Z,100168.91
2022-10-23T23:49:05.389Z,100175.72
2022-10-23T23:51:33.045Z,100163.44
2022-10-23T23:54:00.735Z,100118.88
2022-10-23T23:56:29.094Z,100144.38
2022-10-23T23:58:56.793Z,100143.94
